sensor_id;sensor_type;location;lat;lon;timestamp;P1;durP1;ratioP1;P2;durP2;ratioP2
8139;SDS011;4111;50.972;7.072;2023-07-20T00:01:50;5.27;;;2.80;;
8139;SDS011;4111;50.972;7.072;2023-07-20T00:04:16;3.23;;;2.30;;
8139;SDS011;4111;50.972;7.072;2023-07-20T00:06:43;5.37;;;2.77;;
8139;SDS011;4111;50.972;7.072;2023-07-20T00:09:09;5.77;;;2.80;;
8139;SDS011;4111;50.972;7.072;2023-07-20T00:11:36;2.60;;;2.40;;
8139;SDS011;4111;50.972;7.072;2023-07-20T00:14:04;4.33;;;2.43;;
8139;SDS011;4111;50.972;7.072;2023-07-20T00:16:31;4.07;;;2.50;;
8139;SDS011;4111;50.972;7.072;2023-07-20T00:18:58;3.40;;;2.20;;
8139;SDS011;4111;50.972;7.072;2023-07-20T00:21:25;7.40;;;2.90;;
8139;SDS011;4111;50.972;7.072;2023-07-20T00:23:51;7.33;;;2.73;;
8139;SDS011;4111;50.972;7.072;2023-07-20T00:26:17;7.77;;;2.63;;
8139;SDS011;4111;50.972;7.072;2023-07-20T00:28:44;5.03;;;2.63;;
8139;SDS011;4111;50.972;7.072;2023-07-20T00:31:10;5.33;;;2.70;;
8139;SDS011;4111;50.972;7.072;2023-07-20T00:33:37;4.93;;;3.00;;
8139;SDS011;4111;50.972;7.072;2023-07-20T00:36:03;6.37;;;2.67;;
8139;SDS011;4111;50.972;7.072;2023-07-20T00:38:30;5.97;;;2.77;;
8139;SDS011;4111;50.972;7.072;2023-07-20T00:40:56;5.73;;;2.93;;
8139;SDS011;4111;50.972;7.072;2023-07-20T00:43:23;3.83;;;2.60;;
8139;SDS011;4111;50.972;7.072;2023-07-20T00:45:49;5.53;;;2.50;;
8139;SDS011;4111;50.972;7.072;2023-07-20T00:48:16;3.57;;;2.30;;
8139;SDS011;4111;50.972;7.072;2023-07-20T00:50:42;8.07;;;3.57;;
8139;SDS011;4111;50.972;7.072;2023-07-20T00:53:09;6.60;;;2.90;;
8139;SDS011;4111;50.972;7.072;2023-07-20T00:55:36;6.73;;;2.93;;
8139;SDS011;4111;50.972;7.072;2023-07-20T00:58:02;5.63;;;3.03;;
8139;SDS011;4111;50.972;7.072;2023-07-20T01:00:30;4.27;;;2.50;;
8139;SDS011;4111;50.972;7.072;2023-07-20T01:02:57;3.90;;;2.60;;
8139;SDS011;4111;50.972;7.072;2023-07-20T01:05:25;4.90;;;2.97;;
8139;SDS011;4111;50.972;7.072;2023-07-20T01:08:24;4.07;;;2.87;;
8139;SDS011;4111;50.972;7.072;2023-07-20T01:11:02;4.47;;;2.57;;
8139;SDS011;4111;50.972;7.072;2023-07-20T01:13:36;8.10;;;2.90;;
8139;SDS011;4111;50.972;7.072;2023-07-20T01:16:04;3.10;;;2.47;;
8139;SDS011;4111;50.972;7.072;2023-07-20T01:18:30;7.03;;;3.07;;
8139;SDS011;4111;50.972;7.072;2023-07-20T01:21:03;7.13;;;2.60;;
8139;SDS011;4111;50.972;7.072;2023-07-20T01:29:19;3.47;;;2.43;;
8139;SDS011;4111;50.972;7.072;2023-07-20T01:31:57;4.93;;;2.73;;
8139;SDS011;4111;50.972;7.072;2023-07-20T01:34:25;4.87;;;2.80;;
8139;SDS011;4111;50.972;7.072;2023-07-20T01:36:53;5.20;;;2.80;;
8139;SDS011;4111;50.972;7.072;2023-07-20T01:39:21;4.40;;;2.63;;
8139;SDS011;4111;50.972;7.072;2023-07-20T01:41:49;3.23;;;2.67;;
8139;SDS011;4111;50.972;7.072;2023-07-20T01:44:16;3.73;;;2.70;;
8139;SDS011;4111;50.972;7.072;2023-07-20T01:46:42;6.60;;;2.97;;
8139;SDS011;4111;50.972;7.072;2023-07-20T01:49:08;4.93;;;2.73;;
8139;SDS011;4111;50.972;7.072;2023-07-20T01:51:35;6.20;;;2.73;;
8139;SDS011;4111;50.972;7.072;2023-07-20T01:54:01;6.63;;;3.20;;
8139;SDS011;4111;50.972;7.072;2023-07-20T01:56:28;4.13;;;2.67;;
8139;SDS011;4111;50.972;7.072;2023-07-20T01:58:55;5.07;;;2.73;;
8139;SDS011;4111;50.972;7.072;2023-07-20T02:01:21;3.57;;;2.90;;
8139;SDS011;4111;50.972;7.072;2023-07-20T02:03:48;5.40;;;2.73;;
8139;SDS011;4111;50.972;7.072;2023-07-20T02:06:14;3.93;;;2.63;;
8139;SDS011;4111;50.972;7.072;2023-07-20T02:08:41;4.17;;;2.67;;
8139;SDS011;4111;50.972;7.072;2023-07-20T02:11:07;4.63;;;2.73;;
8139;SDS011;4111;50.972;7.072;2023-07-20T02:13:35;2.57;;;2.37;;
8139;SDS011;4111;50.972;7.072;2023-07-20T02:16:02;2.60;;;2.40;;
8139;SDS011;4111;50.972;7.072;2023-07-20T02:18:28;4.00;;;2.47;;
8139;SDS011;4111;50.972;7.072;2023-07-20T02:20:55;3.90;;;2.37;;
8139;SDS011;4111;50.972;7.072;2023-07-20T02:23:21;2.80;;;2.57;;
8139;SDS011;4111;50.972;7.072;2023-07-20T02:25:48;2.57;;;2.37;;
8139;SDS011;4111;50.972;7.072;2023-07-20T02:28:14;3.07;;;2.30;;
8139;SDS011;4111;50.972;7.072;2023-07-20T02:30:41;6.37;;;2.33;;
8139;SDS011;4111;50.972;7.072;2023-07-20T02:33:07;2.83;;;2.40;;
8139;SDS011;4111;50.972;7.072;2023-07-20T02:35:34;4.80;;;2.30;;
8139;SDS011;4111;50.972;7.072;2023-07-20T02:38:01;3.53;;;2.47;;
8139;SDS011;4111;50.972;7.072;2023-07-20T02:40:27;2.47;;;2.27;;
8139;SDS011;4111;50.972;7.072;2023-07-20T02:42:54;2.93;;;2.40;;
8139;SDS011;4111;50.972;7.072;2023-07-20T02:45:20;2.60;;;2.30;;
8139;SDS011;4111;50.972;7.072;2023-07-20T02:47:47;5.23;;;2.60;;
8139;SDS011;4111;50.972;7.072;2023-07-20T02:50:13;5.20;;;2.70;;
8139;SDS011;4111;50.972;7.072;2023-07-20T02:52:40;4.47;;;2.60;;
8139;SDS011;4111;50.972;7.072;2023-07-20T02:55:07;4.63;;;2.60;;
8139;SDS011;4111;50.972;7.072;2023-07-20T02:57:33;3.10;;;2.80;;
8139;SDS011;4111;50.972;7.072;2023-07-20T03:00:00;4.70;;;3.37;;
8139;SDS011;4111;50.972;7.072;2023-07-20T03:02:29;4.67;;;2.67;;
8139;SDS011;4111;50.972;7.072;2023-07-20T03:04:56;3.73;;;2.90;;
8139;SDS011;4111;50.972;7.072;2023-07-20T03:07:23;3.97;;;2.70;;
8139;SDS011;4111;50.972;7.072;2023-07-20T03:09:50;4.83;;;2.80;;
8139;SDS011;4111;50.972;7.072;2023-07-20T03:12:17;4.17;;;3.50;;
8139;SDS011;4111;50.972;7.072;2023-07-20T03:14:43;10.53;;;3.33;;
8139;SDS011;4111;50.972;7.072;2023-07-20T03:17:10;4.57;;;2.97;;
8139;SDS011;4111;50.972;7.072;2023-07-20T03:19:36;7.37;;;3.60;;
8139;SDS011;4111;50.972;7.072;2023-07-20T03:22:03;4.40;;;3.00;;
8139;SDS011;4111;50.972;7.072;2023-07-20T03:24:29;4.63;;;3.53;;
8139;SDS011;4111;50.972;7.072;2023-07-20T03:26:56;5.83;;;3.13;;
8139;SDS011;4111;50.972;7.072;2023-07-20T03:29:22;10.93;;;3.43;;
8139;SDS011;4111;50.972;7.072;2023-07-20T03:31:49;4.93;;;3.07;;
8139;SDS011;4111;50.972;7.072;2023-07-20T03:34:16;4.57;;;3.03;;
8139;SDS011;4111;50.972;7.072;2023-07-20T03:36:43;5.60;;;3.03;;
8139;SDS011;4111;50.972;7.072;2023-07-20T03:39:09;8.43;;;3.70;;
8139;SDS011;4111;50.972;7.072;2023-07-20T03:41:36;5.37;;;3.20;;
8139;SDS011;4111;50.972;7.072;2023-07-20T03:44:03;5.80;;;3.17;;
8139;SDS011;4111;50.972;7.072;2023-07-20T03:46:30;4.90;;;2.97;;
8139;SDS011;4111;50.972;7.072;2023-07-20T03:48:57;3.60;;;3.10;;
8139;SDS011;4111;50.972;7.072;2023-07-20T03:51:23;4.47;;;2.93;;
8139;SDS011;4111;50.972;7.072;2023-07-20T03:53:50;3.83;;;3.13;;
8139;SDS011;4111;50.972;7.072;2023-07-20T03:56:16;5.10;;;2.80;;
8139;SDS011;4111;50.972;7.072;2023-07-20T03:58:43;5.60;;;3.17;;
8139;SDS011;4111;50.972;7.072;2023-07-20T04:01:09;3.63;;;2.50;;
8139;SDS011;4111;50.972;7.072;2023-07-20T04:03:36;5.27;;;3.23;;
8139;SDS011;4111;50.972;7.072;2023-07-20T04:06:02;5.70;;;3.20;;
8139;SDS011;4111;50.972;7.072;2023-07-20T04:08:29;7.77;;;2.97;;
8139;SDS011;4111;50.972;7.072;2023-07-20T04:10:55;4.10;;;3.17;;
8139;SDS011;4111;50.972;7.072;2023-07-20T04:13:22;4.93;;;2.90;;
8139;SDS011;4111;50.972;7.072;2023-07-20T04:15:48;5.97;;;3.10;;
8139;SDS011;4111;50.972;7.072;2023-07-20T04:18:15;6.93;;;3.33;;
8139;SDS011;4111;50.972;7.072;2023-07-20T04:20:41;4.37;;;2.93;;
8139;SDS011;4111;50.972;7.072;2023-07-20T04:23:08;5.37;;;3.17;;
8139;SDS011;4111;50.972;7.072;2023-07-20T04:25:34;10.17;;;3.47;;
8139;SDS011;4111;50.972;7.072;2023-07-20T04:28:06;7.07;;;3.40;;
8139;SDS011;4111;50.972;7.072;2023-07-20T04:30:36;7.73;;;3.20;;
8139;SDS011;4111;50.972;7.072;2023-07-20T04:33:04;7.83;;;3.07;;
8139;SDS011;4111;50.972;7.072;2023-07-20T04:38:17;5.77;;;2.93;;
8139;SDS011;4111;50.972;7.072;2023-07-20T04:40:48;5.67;;;3.17;;
8139;SDS011;4111;50.972;7.072;2023-07-20T04:43:17;7.63;;;3.30;;
8139;SDS011;4111;50.972;7.072;2023-07-20T04:45:44;5.43;;;3.13;;
8139;SDS011;4111;50.972;7.072;2023-07-20T04:48:11;10.63;;;3.40;;
8139;SDS011;4111;50.972;7.072;2023-07-20T04:50:43;6.23;;;3.20;;
8139;SDS011;4111;50.972;7.072;2023-07-20T04:53:13;10.03;;;3.70;;
8139;SDS011;4111;50.972;7.072;2023-07-20T04:55:40;6.63;;;4.27;;
8139;SDS011;4111;50.972;7.072;2023-07-20T04:58:13;11.73;;;3.80;;
8139;SDS011;4111;50.972;7.072;2023-07-20T05:00:39;6.10;;;4.07;;
8139;SDS011;4111;50.972;7.072;2023-07-20T05:03:06;10.03;;;4.30;;
8139;SDS011;4111;50.972;7.072;2023-07-20T05:05:32;8.20;;;3.73;;
8139;SDS011;4111;50.972;7.072;2023-07-20T05:07:59;9.23;;;3.67;;
8139;SDS011;4111;50.972;7.072;2023-07-20T05:10:25;5.87;;;3.73;;
8139;SDS011;4111;50.972;7.072;2023-07-20T05:12:52;6.77;;;4.30;;
8139;SDS011;4111;50.972;7.072;2023-07-20T05:15:18;6.40;;;4.40;;
8139;SDS011;4111;50.972;7.072;2023-07-20T05:17:44;9.93;;;4.30;;
8139;SDS011;4111;50.972;7.072;2023-07-20T05:20:11;7.17;;;4.60;;
8139;SDS011;4111;50.972;7.072;2023-07-20T05:22:38;8.63;;;4.50;;
8139;SDS011;4111;50.972;7.072;2023-07-20T05:25:09;8.90;;;4.20;;
8139;SDS011;4111;50.972;7.072;2023-07-20T05:27:37;6.33;;;4.40;;
8139;SDS011;4111;50.972;7.072;2023-07-20T05:30:05;9.17;;;4.57;;
8139;SDS011;4111;50.972;7.072;2023-07-20T05:32:33;6.30;;;3.97;;
8139;SDS011;4111;50.972;7.072;2023-07-20T05:35:00;8.77;;;4.47;;
8139;SDS011;4111;50.972;7.072;2023-07-20T05:37:26;8.03;;;4.10;;
8139;SDS011;4111;50.972;7.072;2023-07-20T05:39:53;23.30;;;7.07;;
8139;SDS011;4111;50.972;7.072;2023-07-20T05:42:19;46.20;;;13.77;;
8139;SDS011;4111;50.972;7.072;2023-07-20T05:44:46;12.83;;;6.07;;
8139;SDS011;4111;50.972;7.072;2023-07-20T05:47:14;9.77;;;5.10;;
8139;SDS011;4111;50.972;7.072;2023-07-20T05:49:40;11.87;;;5.20;;
8139;SDS011;4111;50.972;7.072;2023-07-20T05:52:07;8.70;;;5.77;;
8139;SDS011;4111;50.972;7.072;2023-07-20T05:54:33;7.03;;;4.87;;
8139;SDS011;4111;50.972;7.072;2023-07-20T05:57:00;9.43;;;4.53;;
8139;SDS011;4111;50.972;7.072;2023-07-20T05:59:27;8.90;;;6.40;;
8139;SDS011;4111;50.972;7.072;2023-07-20T06:01:55;7.57;;;5.73;;
8139;SDS011;4111;50.972;7.072;2023-07-20T06:04:22;9.57;;;6.00;;
8139;SDS011;4111;50.972;7.072;2023-07-20T06:06:48;7.57;;;5.60;;
8139;SDS011;4111;50.972;7.072;2023-07-20T06:09:15;8.10;;;6.37;;
8139;SDS011;4111;50.972;7.072;2023-07-20T06:11:42;10.83;;;7.40;;
8139;SDS011;4111;50.972;7.072;2023-07-20T06:14:08;10.50;;;6.37;;
8139;SDS011;4111;50.972;7.072;2023-07-20T06:16:35;12.60;;;6.70;;
8139;SDS011;4111;50.972;7.072;2023-07-20T06:19:01;9.57;;;5.70;;
8139;SDS011;4111;50.972;7.072;2023-07-20T06:21:27;8.97;;;6.90;;
8139;SDS011;4111;50.972;7.072;2023-07-20T06:23:54;11.97;;;6.57;;
8139;SDS011;4111;50.972;7.072;2023-07-20T06:26:20;7.57;;;6.63;;
8139;SDS011;4111;50.972;7.072;2023-07-20T06:28:48;12.63;;;6.23;;
8139;SDS011;4111;50.972;7.072;2023-07-20T06:31:14;9.17;;;6.07;;
8139;SDS011;4111;50.972;7.072;2023-07-20T06:33:41;8.77;;;6.80;;
8139;SDS011;4111;50.972;7.072;2023-07-20T06:36:07;11.13;;;7.13;;
8139;SDS011;4111;50.972;7.072;2023-07-20T06:38:34;10.27;;;6.97;;
8139;SDS011;4111;50.972;7.072;2023-07-20T06:41:00;12.33;;;6.67;;
8139;SDS011;4111;50.972;7.072;2023-07-20T06:43:30;8.33;;;6.53;;
8139;SDS011;4111;50.972;7.072;2023-07-20T06:45:59;8.80;;;5.90;;
8139;SDS011;4111;50.972;7.072;2023-07-20T06:48:26;9.60;;;7.00;;
8139;SDS011;4111;50.972;7.072;2023-07-20T06:50:52;8.13;;;6.90;;
8139;SDS011;4111;50.972;7.072;2023-07-20T06:53:19;9.97;;;6.17;;
8139;SDS011;4111;50.972;7.072;2023-07-20T06:55:46;8.43;;;6.63;;
8139;SDS011;4111;50.972;7.072;2023-07-20T06:58:17;8.23;;;6.53;;
8139;SDS011;4111;50.972;7.072;2023-07-20T07:00:45;12.30;;;6.77;;
8139;SDS011;4111;50.972;7.072;2023-07-20T07:03:11;10.40;;;7.07;;
8139;SDS011;4111;50.972;7.072;2023-07-20T07:05:38;9.37;;;7.00;;
8139;SDS011;4111;50.972;7.072;2023-07-20T07:08:05;8.13;;;6.93;;
8139;SDS011;4111;50.972;7.072;2023-07-20T07:10:32;8.27;;;7.40;;
8139;SDS011;4111;50.972;7.072;2023-07-20T07:12:59;8.47;;;6.80;;
8139;SDS011;4111;50.972;7.072;2023-07-20T07:15:26;8.03;;;7.20;;
8139;SDS011;4111;50.972;7.072;2023-07-20T07:17:53;7.77;;;6.70;;
8139;SDS011;4111;50.972;7.072;2023-07-20T07:20:20;7.77;;;7.07;;
8139;SDS011;4111;50.972;7.072;2023-07-20T07:22:47;7.10;;;6.50;;
8139;SDS011;4111;50.972;7.072;2023-07-20T07:25:14;8.20;;;7.20;;
8139;SDS011;4111;50.972;7.072;2023-07-20T07:27:48;8.13;;;6.70;;
8139;SDS011;4111;50.972;7.072;2023-07-20T07:30:14;8.53;;;6.67;;
8139;SDS011;4111;50.972;7.072;2023-07-20T07:32:41;6.67;;;5.50;;
8139;SDS011;4111;50.972;7.072;2023-07-20T07:35:08;8.50;;;6.00;;
8139;SDS011;4111;50.972;7.072;2023-07-20T07:37:34;6.87;;;5.50;;
8139;SDS011;4111;50.972;7.072;2023-07-20T07:40:12;5.50;;;5.00;;
8139;SDS011;4111;50.972;7.072;2023-07-20T07:42:38;5.40;;;4.90;;
8139;SDS011;4111;50.972;7.072;2023-07-20T07:45:05;5.47;;;4.70;;
8139;SDS011;4111;50.972;7.072;2023-07-20T07:47:32;6.13;;;5.40;;
8139;SDS011;4111;50.972;7.072;2023-07-20T07:49:59;6.53;;;4.80;;
8139;SDS011;4111;50.972;7.072;2023-07-20T07:52:26;9.70;;;5.70;;
8139;SDS011;4111;50.972;7.072;2023-07-20T07:54:52;7.77;;;4.60;;
8139;SDS011;4111;50.972;7.072;2023-07-20T07:57:18;7.30;;;4.80;;
8139;SDS011;4111;50.972;7.072;2023-07-20T07:59:45;5.70;;;5.20;;
8139;SDS011;4111;50.972;7.072;2023-07-20T08:02:11;4.97;;;3.80;;
8139;SDS011;4111;50.972;7.072;2023-07-20T08:04:38;8.90;;;4.03;;
8139;SDS011;4111;50.972;7.072;2023-07-20T08:07:05;5.87;;;3.47;;
8139;SDS011;4111;50.972;7.072;2023-07-20T08:09:32;5.30;;;4.00;;
8139;SDS011;4111;50.972;7.072;2023-07-20T08:11:59;5.77;;;4.00;;
8139;SDS011;4111;50.972;7.072;2023-07-20T08:14:26;6.77;;;3.90;;
8139;SDS011;4111;50.972;7.072;2023-07-20T08:16:52;4.43;;;3.80;;
8139;SDS011;4111;50.972;7.072;2023-07-20T08:19:20;3.50;;;3.20;;
8139;SDS011;4111;50.972;7.072;2023-07-20T08:21:47;3.43;;;3.13;;
8139;SDS011;4111;50.972;7.072;2023-07-20T08:24:13;5.40;;;3.37;;
8139;SDS011;4111;50.972;7.072;2023-07-20T08:26:40;6.33;;;3.70;;
8139;SDS011;4111;50.972;7.072;2023-07-20T08:29:07;5.40;;;3.93;;
8139;SDS011;4111;50.972;7.072;2023-07-20T08:31:33;3.93;;;3.60;;
8139;SDS011;4111;50.972;7.072;2023-07-20T08:33:59;3.00;;;2.70;;
8139;SDS011;4111;50.972;7.072;2023-07-20T08:36:28;6.23;;;2.70;;
8139;SDS011;4111;50.972;7.072;2023-07-20T08:38:56;4.17;;;2.87;;
8139;SDS011;4111;50.972;7.072;2023-07-20T08:41:23;3.90;;;2.27;;
8139;SDS011;4111;50.972;7.072;2023-07-20T08:43:49;3.67;;;2.80;;
8139;SDS011;4111;50.972;7.072;2023-07-20T08:46:19;3.73;;;2.90;;
8139;SDS011;4111;50.972;7.072;2023-07-20T08:48:47;6.30;;;2.53;;
8139;SDS011;4111;50.972;7.072;2023-07-20T08:51:13;5.13;;;2.70;;
8139;SDS011;4111;50.972;7.072;2023-07-20T08:53:41;3.20;;;3.00;;
8139;SDS011;4111;50.972;7.072;2023-07-20T08:56:11;2.40;;;2.20;;
8139;SDS011;4111;50.972;7.072;2023-07-20T08:58:38;2.50;;;2.30;;
8139;SDS011;4111;50.972;7.072;2023-07-20T09:01:07;3.23;;;2.30;;
8139;SDS011;4111;50.972;7.072;2023-07-20T09:03:34;3.00;;;2.13;;
8139;SDS011;4111;50.972;7.072;2023-07-20T09:06:00;3.70;;;1.97;;
8139;SDS011;4111;50.972;7.072;2023-07-20T09:08:27;4.50;;;2.10;;
8139;SDS011;4111;50.972;7.072;2023-07-20T09:10:53;1.87;;;1.77;;
8139;SDS011;4111;50.972;7.072;2023-07-20T09:13:20;3.03;;;1.80;;
8139;SDS011;4111;50.972;7.072;2023-07-20T09:15:47;2.57;;;1.73;;
8139;SDS011;4111;50.972;7.072;2023-07-20T09:18:23;2.80;;;2.13;;
8139;SDS011;4111;50.972;7.072;2023-07-20T09:21:02;2.50;;;2.30;;
8139;SDS011;4111;50.972;7.072;2023-07-20T09:23:33;3.03;;;2.20;;
8139;SDS011;4111;50.972;7.072;2023-07-20T09:26:14;2.30;;;2.00;;
8139;SDS011;4111;50.972;7.072;2023-07-20T09:28:51;4.23;;;2.60;;
8139;SDS011;4111;50.972;7.072;2023-07-20T09:31:20;3.73;;;1.60;;
8139;SDS011;4111;50.972;7.072;2023-07-20T09:33:48;2.72;;;1.52;;
8139;SDS011;4111;50.972;7.072;2023-07-20T09:36:18;1.83;;;1.50;;
8139;SDS011;4111;50.972;7.072;2023-07-20T09:39:05;4.65;;;1.80;;
8139;SDS011;4111;50.972;7.072;2023-07-20T09:41:39;3.27;;;1.80;;
8139;SDS011;4111;50.972;7.072;2023-07-20T09:44:11;1.70;;;1.60;;
8139;SDS011;4111;50.972;7.072;2023-07-20T09:46:43;3.22;;;1.88;;
8139;SDS011;4111;50.972;7.072;2023-07-20T09:49:14;2.55;;;1.42;;
8139;SDS011;4111;50.972;7.072;2023-07-20T09:51:44;3.45;;;1.50;;
8139;SDS011;4111;50.972;7.072;2023-07-20T09:54:13;3.67;;;1.67;;
8139;SDS011;4111;50.972;7.072;2023-07-20T09:56:40;2.23;;;1.60;;
8139;SDS011;4111;50.972;7.072;2023-07-20T09:59:08;1.70;;;1.60;;
8139;SDS011;4111;50.972;7.072;2023-07-20T10:01:35;1.70;;;1.60;;
8139;SDS011;4111;50.972;7.072;2023-07-20T10:04:07;5.03;;;1.50;;
8139;SDS011;4111;50.972;7.072;2023-07-20T10:06:35;2.08;;;1.70;;
8139;SDS011;4111;50.972;7.072;2023-07-20T10:09:08;3.78;;;1.42;;
8139;SDS011;4111;50.972;7.072;2023-07-20T10:11:38;2.00;;;1.35;;
8139;SDS011;4111;50.972;7.072;2023-07-20T10:14:09;2.03;;;1.30;;
8139;SDS011;4111;50.972;7.072;2023-07-20T10:16:43;1.77;;;1.45;;
8139;SDS011;4111;50.972;7.072;2023-07-20T10:21:54;1.38;;;1.35;;
8139;SDS011;4111;50.972;7.072;2023-07-20T10:24:29;1.65;;;1.52;;
8139;SDS011;4111;50.972;7.072;2023-07-20T10:26:58;1.92;;;1.60;;
8139;SDS011;4111;50.972;7.072;2023-07-20T10:29:27;1.88;;;1.67;;
8139;SDS011;4111;50.972;7.072;2023-07-20T10:31:55;3.53;;;1.70;;
8139;SDS011;4111;50.972;7.072;2023-07-20T10:34:23;1.73;;;1.50;;
8139;SDS011;4111;50.972;7.072;2023-07-20T10:36:50;3.95;;;1.48;;
8139;SDS011;4111;50.972;7.072;2023-07-20T10:39:25;2.38;;;1.20;;
8139;SDS011;4111;50.972;7.072;2023-07-20T10:42:00;2.15;;;1.60;;
8139;SDS011;4111;50.972;7.072;2023-07-20T10:44:29;4.07;;;1.92;;
8139;SDS011;4111;50.972;7.072;2023-07-20T10:47:00;2.83;;;1.38;;
8139;SDS011;4111;50.972;7.072;2023-07-20T10:49:30;1.70;;;1.58;;
8139;SDS011;4111;50.972;7.072;2023-07-20T10:52:00;3.53;;;1.42;;
8139;SDS011;4111;50.972;7.072;2023-07-20T10:56:57;1.95;;;1.42;;
8139;SDS011;4111;50.972;7.072;2023-07-20T10:59:45;1.70;;;1.17;;
8139;SDS011;4111;50.972;7.072;2023-07-20T11:02:17;1.38;;;1.27;;
8139;SDS011;4111;50.972;7.072;2023-07-20T11:04:45;1.55;;;1.33;;
8139;SDS011;4111;50.972;7.072;2023-07-20T11:07:16;1.67;;;1.30;;
8139;SDS011;4111;50.972;7.072;2023-07-20T11:09:43;1.40;;;1.30;;
8139;SDS011;4111;50.972;7.072;2023-07-20T11:12:17;6.90;;;1.38;;
8139;SDS011;4111;50.972;7.072;2023-07-20T11:14:54;3.63;;;1.50;;
8139;SDS011;4111;50.972;7.072;2023-07-20T11:17:28;1.70;;;1.52;;
8139;SDS011;4111;50.972;7.072;2023-07-20T11:19:56;1.50;;;1.40;;
8139;SDS011;4111;50.972;7.072;2023-07-20T11:22:27;1.30;;;1.20;;
8139;SDS011;4111;50.972;7.072;2023-07-20T11:24:57;5.15;;;1.50;;
8139;SDS011;4111;50.972;7.072;2023-07-20T11:27:24;1.52;;;1.42;;
8139;SDS011;4111;50.972;7.072;2023-07-20T11:29:50;1.45;;;1.20;;
8139;SDS011;4111;50.972;7.072;2023-07-20T11:32:20;1.45;;;1.10;;
8139;SDS011;4111;50.972;7.072;2023-07-20T11:34:50;1.30;;;1.17;;
8139;SDS011;4111;50.972;7.072;2023-07-20T11:37:17;1.33;;;1.23;;
8139;SDS011;4111;50.972;7.072;2023-07-20T11:39:44;1.20;;;1.02;;
8139;SDS011;4111;50.972;7.072;2023-07-20T11:42:11;2.60;;;1.20;;
8139;SDS011;4111;50.972;7.072;2023-07-20T11:44:38;2.10;;;1.20;;
8139;SDS011;4111;50.972;7.072;2023-07-20T11:47:07;1.27;;;1.17;;
8139;SDS011;4111;50.972;7.072;2023-07-20T11:49:35;0.93;;;0.90;;
8139;SDS011;4111;50.972;7.072;2023-07-20T11:52:06;1.20;;;1.10;;
8139;SDS011;4111;50.972;7.072;2023-07-20T11:54:34;1.52;;;1.00;;
8139;SDS011;4111;50.972;7.072;2023-07-20T11:57:02;1.45;;;1.20;;
8139;SDS011;4111;50.972;7.072;2023-07-20T11:59:29;1.65;;;1.10;;
8139;SDS011;4111;50.972;7.072;2023-07-20T12:02:00;1.40;;;1.30;;
8139;SDS011;4111;50.972;7.072;2023-07-20T12:04:27;1.10;;;1.10;;
8139;SDS011;4111;50.972;7.072;2023-07-20T12:06:54;1.40;;;1.10;;
8139;SDS011;4111;50.972;7.072;2023-07-20T12:09:21;1.00;;;1.00;;
8139;SDS011;4111;50.972;7.072;2023-07-20T12:11:49;1.10;;;1.00;;
8139;SDS011;4111;50.972;7.072;2023-07-20T12:14:16;1.40;;;1.30;;
8139;SDS011;4111;50.972;7.072;2023-07-20T12:16:43;1.02;;;1.02;;
8139;SDS011;4111;50.972;7.072;2023-07-20T12:19:11;1.73;;;1.30;;
8139;SDS011;4111;50.972;7.072;2023-07-20T12:21:39;3.50;;;1.20;;
8139;SDS011;4111;50.972;7.072;2023-07-20T12:24:08;2.60;;;1.10;;
8139;SDS011;4111;50.972;7.072;2023-07-20T12:26:36;1.45;;;1.20;;
8139;SDS011;4111;50.972;7.072;2023-07-20T12:29:03;1.73;;;1.10;;
8139;SDS011;4111;50.972;7.072;2023-07-20T12:31:30;2.67;;;1.30;;
8139;SDS011;4111;50.972;7.072;2023-07-20T12:33:59;2.65;;;1.10;;
8139;SDS011;4111;50.972;7.072;2023-07-20T12:36:25;2.15;;;1.30;;
8139;SDS011;4111;50.972;7.072;2023-07-20T12:38:52;2.85;;;1.33;;
8139;SDS011;4111;50.972;7.072;2023-07-20T12:41:18;3.15;;;1.23;;
8139;SDS011;4111;50.972;7.072;2023-07-20T12:43:45;2.55;;;1.40;;
8139;SDS011;4111;50.972;7.072;2023-07-20T12:46:12;1.45;;;1.35;;
8139;SDS011;4111;50.972;7.072;2023-07-20T12:48:40;1.25;;;1.20;;
8139;SDS011;4111;50.972;7.072;2023-07-20T12:51:11;1.33;;;1.23;;
8139;SDS011;4111;50.972;7.072;2023-07-20T12:53:38;1.30;;;1.17;;
8139;SDS011;4111;50.972;7.072;2023-07-20T12:56:05;1.80;;;1.20;;
8139;SDS011;4111;50.972;7.072;2023-07-20T12:58:34;2.80;;;1.25;;
8139;SDS011;4111;50.972;7.072;2023-07-20T13:01:02;1.23;;;1.10;;
8139;SDS011;4111;50.972;7.072;2023-07-20T13:03:29;1.48;;;1.20;;
8139;SDS011;4111;50.972;7.072;2023-07-20T13:05:57;1.45;;;1.00;;
8139;SDS011;4111;50.972;7.072;2023-07-20T13:08:28;1.10;;;1.10;;
8139;SDS011;4111;50.972;7.072;2023-07-20T13:10:55;3.60;;;1.35;;
8139;SDS011;4111;50.972;7.072;2023-07-20T13:13:21;1.05;;;1.00;;
8139;SDS011;4111;50.972;7.072;2023-07-20T13:15:47;1.90;;;1.10;;
8139;SDS011;4111;50.972;7.072;2023-07-20T13:18:14;1.33;;;1.23;;
8139;SDS011;4111;50.972;7.072;2023-07-20T13:20:41;1.50;;;1.40;;
8139;SDS011;4111;50.972;7.072;2023-07-20T13:23:07;1.13;;;1.13;;
8139;SDS011;4111;50.972;7.072;2023-07-20T13:25:34;2.97;;;1.13;;
8139;SDS011;4111;50.972;7.072;2023-07-20T13:28:00;1.50;;;1.17;;
8139;SDS011;4111;50.972;7.072;2023-07-20T13:30:27;1.17;;;1.10;;
8139;SDS011;4111;50.972;7.072;2023-07-20T13:32:53;1.65;;;1.10;;
8139;SDS011;4111;50.972;7.072;2023-07-20T13:35:20;2.53;;;1.38;;
8139;SDS011;4111;50.972;7.072;2023-07-20T13:37:46;1.27;;;1.10;;
8139;SDS011;4111;50.972;7.072;2023-07-20T13:40:14;1.17;;;1.08;;
8139;SDS011;4111;50.972;7.072;2023-07-20T13:42:43;3.75;;;1.10;;
8139;SDS011;4111;50.972;7.072;2023-07-20T13:45:11;2.13;;;1.00;;
8139;SDS011;4111;50.972;7.072;2023-07-20T13:47:38;3.83;;;1.20;;
8139;SDS011;4111;50.972;7.072;2023-07-20T13:50:05;3.03;;;1.27;;
8139;SDS011;4111;50.972;7.072;2023-07-20T13:52:32;3.70;;;1.38;;
8139;SDS011;4111;50.972;7.072;2023-07-20T13:55:01;3.85;;;2.28;;
8139;SDS011;4111;50.972;7.072;2023-07-20T13:57:30;2.42;;;1.33;;
8139;SDS011;4111;50.972;7.072;2023-07-20T13:59:59;6.80;;;1.50;;
8139;SDS011;4111;50.972;7.072;2023-07-20T14:02:27;1.55;;;0.98;;
8139;SDS011;4111;50.972;7.072;2023-07-20T14:04:56;1.42;;;1.27;;
8139;SDS011;4111;50.972;7.072;2023-07-20T14:07:26;1.77;;;1.20;;
8139;SDS011;4111;50.972;7.072;2023-07-20T14:09:52;2.15;;;1.08;;
8139;SDS011;4111;50.972;7.072;2023-07-20T14:12:22;1.52;;;1.40;;
8139;SDS011;4111;50.972;7.072;2023-07-20T14:14:48;1.30;;;1.20;;
8139;SDS011;4111;50.972;7.072;2023-07-20T14:17:15;2.00;;;1.42;;
8139;SDS011;4111;50.972;7.072;2023-07-20T14:19:41;1.63;;;1.30;;
8139;SDS011;4111;50.972;7.072;2023-07-20T14:22:09;3.22;;;1.33;;
8139;SDS011;4111;50.972;7.072;2023-07-20T14:24:37;1.95;;;1.45;;
8139;SDS011;4111;50.972;7.072;2023-07-20T14:27:04;1.83;;;1.15;;
8139;SDS011;4111;50.972;7.072;2023-07-20T14:29:31;1.75;;;1.13;;
8139;SDS011;4111;50.972;7.072;2023-07-20T14:31:58;1.52;;;1.27;;
8139;SDS011;4111;50.972;7.072;2023-07-20T14:34:25;2.30;;;1.33;;
8139;SDS011;4111;50.972;7.072;2023-07-20T14:36:51;2.70;;;1.38;;
8139;SDS011;4111;50.972;7.072;2023-07-20T14:39:18;4.45;;;1.30;;
8139;SDS011;4111;50.972;7.072;2023-07-20T14:41:45;2.45;;;1.27;;
8139;SDS011;4111;50.972;7.072;2023-07-20T14:44:12;4.50;;;1.30;;
8139;SDS011;4111;50.972;7.072;2023-07-20T14:46:38;5.18;;;1.40;;
8139;SDS011;4111;50.972;7.072;2023-07-20T14:49:05;2.13;;;1.10;;
8139;SDS011;4111;50.972;7.072;2023-07-20T14:51:31;1.27;;;1.17;;
8139;SDS011;4111;50.972;7.072;2023-07-20T14:54:02;1.00;;;1.00;;
8139;SDS011;4111;50.972;7.072;2023-07-20T14:56:28;1.70;;;1.10;;
8139;SDS011;4111;50.972;7.072;2023-07-20T14:58:55;4.35;;;1.30;;
8139;SDS011;4111;50.972;7.072;2023-07-20T15:01:23;2.10;;;1.50;;
8139;SDS011;4111;50.972;7.072;2023-07-20T15:03:50;6.75;;;1.42;;
8139;SDS011;4111;50.972;7.072;2023-07-20T15:06:22;1.25;;;1.23;;
8139;SDS011;4111;50.972;7.072;2023-07-20T15:08:49;3.08;;;1.00;;
8139;SDS011;4111;50.972;7.072;2023-07-20T15:11:16;2.25;;;1.40;;
8139;SDS011;4111;50.972;7.072;2023-07-20T15:13:42;2.10;;;1.05;;
8139;SDS011;4111;50.972;7.072;2023-07-20T15:16:09;3.63;;;1.30;;
8139;SDS011;4111;50.972;7.072;2023-07-20T15:18:37;2.55;;;1.50;;
8139;SDS011;4111;50.972;7.072;2023-07-20T15:21:13;2.90;;;1.13;;
8139;SDS011;4111;50.972;7.072;2023-07-20T15:23:40;2.45;;;1.60;;
8139;SDS011;4111;50.972;7.072;2023-07-20T15:26:07;2.88;;;1.20;;
8139;SDS011;4111;50.972;7.072;2023-07-20T15:28:34;1.40;;;1.30;;
8139;SDS011;4111;50.972;7.072;2023-07-20T15:31:01;3.15;;;1.20;;
8139;SDS011;4111;50.972;7.072;2023-07-20T15:33:29;2.45;;;1.50;;